SAT242 LPHR-LPFL

Flight info

Callsign SAT242
Flight time 0h 36m
Altitude 16000
Route HR506 DCT D181M
Aircraft DH8D/M-SDE2E3FGRY/H

Departure

Time 2026-04-23 14:49
Airport Horta Airport (LPHR)

Arrival

Time 2026-04-23 15:26
Airport Flores Airport (LPFL)
Time Latitude Longitude Altitude Speed Heading
2026-04-23 14:26 38.52102 -28.71618 118 ft 0 kts 165°
2026-04-23 14:46 38.52099 -28.71617 118 ft 3 kts 158°
2026-04-23 14:46 38.52081 -28.71549 119 ft 10 kts 89°
2026-04-23 14:46 38.52049 -28.71483 118 ft 13 kts 165°
2026-04-23 14:46 38.51992 -28.71361 118 ft 16 kts 90°
2026-04-23 14:47 38.51996 -28.71177 119 ft 25 kts 87°
2026-04-23 14:47 38.52007 -28.70895 118 ft 32 kts 96°
2026-04-23 14:47 38.52002 -28.70735 116 ft 11 kts 66°
2026-04-23 14:47 38.52014 -28.70635 115 ft 10 kts 188°
2026-04-23 14:48 38.51994 -28.70672 115 ft 0 kts 265°
2026-04-23 14:48 38.51993 -28.70874 117 ft 71 kts 269°
2026-04-23 14:49 38.51986 -28.71858 164 ft 139 kts 269°
2026-04-23 14:49 38.52026 -28.73073 973 ft 140 kts 271°
2026-04-23 14:49 38.52158 -28.74297 1805 ft 147 kts 279°
2026-04-23 14:49 38.52191 -28.75594 2753 ft 150 kts 269°
2026-04-23 14:50 38.52152 -28.76883 3671 ft 153 kts 270°
2026-04-23 14:50 38.52187 -28.78204 4446 ft 150 kts 283°
2026-04-23 14:50 38.52517 -28.79436 5152 ft 150 kts 291°
2026-04-23 14:50 38.52908 -28.80653 5833 ft 151 kts 291°
2026-04-23 14:51 38.53301 -28.81874 6486 ft 152 kts 291°
2026-04-23 14:51 38.53702 -28.83111 7147 ft 152 kts 292°
2026-04-23 14:51 38.54104 -28.84352 7816 ft 152 kts 292°
2026-04-23 14:51 38.54500 -28.85574 8451 ft 151 kts 292°
2026-04-23 14:52 38.54897 -28.86794 9082 ft 151 kts 292°
2026-04-23 14:52 38.55298 -28.88026 9710 ft 150 kts 293°
2026-04-23 14:52 38.55691 -28.89236 10258 ft 153 kts 293°
2026-04-23 14:52 38.56101 -28.90498 10780 ft 156 kts 293°
2026-04-23 14:53 38.56512 -28.91767 11339 ft 157 kts 294°
2026-04-23 14:53 38.56926 -28.93052 11921 ft 156 kts 294°
2026-04-23 14:53 38.57336 -28.94322 12498 ft 155 kts 295°
2026-04-23 14:53 38.57741 -28.95573 13046 ft 152 kts 295°
2026-04-23 14:54 38.58139 -28.96805 13563 ft 150 kts 296°
2026-04-23 14:54 38.58533 -28.98020 14077 ft 148 kts 296°
2026-04-23 14:54 38.58924 -28.99225 14552 ft 147 kts 296°
2026-04-23 14:54 38.59307 -29.00409 15009 ft 145 kts 296°
2026-04-23 14:55 38.59688 -29.01582 15421 ft 145 kts 296°
2026-04-23 14:55 38.60089 -29.02815 15652 ft 156 kts 296°
2026-04-23 14:55 38.60531 -29.04174 15768 ft 177 kts 295°
2026-04-23 14:55 38.61031 -29.05717 15829 ft 200 kts 295°
2026-04-23 14:56 38.61592 -29.07457 15842 ft 223 kts 295°
2026-04-23 14:56 38.62207 -29.09371 15832 ft 242 kts 294°
2026-04-23 14:56 38.62861 -29.11407 15828 ft 258 kts 294°
2026-04-23 14:56 38.63562 -29.13590 15826 ft 271 kts 294°
2026-04-23 14:57 38.64294 -29.15870 15819 ft 281 kts 294°
2026-04-23 14:57 38.65030 -29.18169 15817 ft 284 kts 294°
2026-04-23 14:57 38.65782 -29.20522 15810 ft 285 kts 294°
2026-04-23 14:57 38.66528 -29.22853 15810 ft 285 kts 294°
2026-04-23 14:58 38.67280 -29.25203 15805 ft 286 kts 294°
2026-04-23 14:58 38.68039 -29.27574 15809 ft 286 kts 294°
2026-04-23 14:58 38.68794 -29.29930 15810 ft 286 kts 295°
2026-04-23 14:58 38.69550 -29.32292 15811 ft 287 kts 294°
2026-04-23 14:59 38.70305 -29.34648 15810 ft 287 kts 295°
2026-04-23 14:59 38.71058 -29.37004 15809 ft 287 kts 294°
2026-04-23 14:59 38.71820 -29.39388 15813 ft 287 kts 294°
2026-04-23 14:59 38.72581 -29.41767 15806 ft 287 kts 294°
2026-04-23 15:00 38.73337 -29.44132 15801 ft 288 kts 295°
2026-04-23 15:00 38.74094 -29.46503 15801 ft 288 kts 294°
2026-04-23 15:00 38.74843 -29.48852 15800 ft 288 kts 294°
2026-04-23 15:00 38.75596 -29.51214 15803 ft 287 kts 294°
2026-04-23 15:01 38.76349 -29.53583 15805 ft 287 kts 295°
2026-04-23 15:01 38.77108 -29.55968 15812 ft 287 kts 294°
2026-04-23 15:01 38.77863 -29.58343 15810 ft 287 kts 295°
2026-04-23 15:01 38.78609 -29.60691 15807 ft 287 kts 294°
2026-04-23 15:02 38.79372 -29.63096 15807 ft 287 kts 294°
2026-04-23 15:02 38.80120 -29.65454 15801 ft 288 kts 294°
2026-04-23 15:02 38.80879 -29.67849 15799 ft 288 kts 294°
2026-04-23 15:02 38.81626 -29.70209 15806 ft 288 kts 294°
2026-04-23 15:03 38.82383 -29.72600 15804 ft 289 kts 294°
2026-04-23 15:03 38.83136 -29.74986 15800 ft 289 kts 294°
2026-04-23 15:03 38.83896 -29.77390 15800 ft 289 kts 294°
2026-04-23 15:03 38.84642 -29.79756 15801 ft 289 kts 294°
2026-04-23 15:04 38.85405 -29.82174 15805 ft 289 kts 294°
2026-04-23 15:04 38.86152 -29.84547 15804 ft 289 kts 294°
2026-04-23 15:04 38.86906 -29.86943 15806 ft 289 kts 294°
2026-04-23 15:04 38.87660 -29.89341 15809 ft 289 kts 294°
2026-04-23 15:05 38.88405 -29.91714 15803 ft 289 kts 294°
2026-04-23 15:05 38.89156 -29.94105 15809 ft 289 kts 293°
2026-04-23 15:05 38.89913 -29.96518 15808 ft 289 kts 293°
2026-04-23 15:05 38.90660 -29.98905 15814 ft 289 kts 294°
2026-04-23 15:06 38.91409 -30.01295 15812 ft 289 kts 294°
2026-04-23 15:06 38.92151 -30.03670 15805 ft 289 kts 293°
2026-04-23 15:06 38.92784 -30.06152 15803 ft 290 kts 288°
2026-04-23 15:06 38.93285 -30.08659 15801 ft 291 kts 287°
2026-04-23 15:07 38.93776 -30.11160 15804 ft 290 kts 287°
2026-04-23 15:07 38.94267 -30.13678 15814 ft 290 kts 287°
2026-04-23 15:07 38.94755 -30.16176 15812 ft 290 kts 287°
2026-04-23 15:07 38.95245 -30.18692 15805 ft 290 kts 287°
2026-04-23 15:08 38.95737 -30.21216 15804 ft 290 kts 287°
2026-04-23 15:08 38.96225 -30.23728 15806 ft 290 kts 287°
2026-04-23 15:08 38.96716 -30.26256 15802 ft 291 kts 287°
2026-04-23 15:09 38.97691 -30.31283 15804 ft 291 kts 287°
2026-04-23 15:09 38.98179 -30.33799 15798 ft 291 kts 287°
2026-04-23 15:09 38.98667 -30.36325 15804 ft 291 kts 287°
2026-04-23 15:09 38.99153 -30.38836 15803 ft 292 kts 287°
2026-04-23 15:10 38.99482 -30.40527 15803 ft 292 kts 287°
2026-04-23 15:10 39.00137 -30.43897 15803 ft 292 kts 287°
2026-04-23 15:10 39.00632 -30.46450 15806 ft 292 kts 287°
2026-04-23 15:10 39.01115 -30.48951 15800 ft 292 kts 287°
2026-04-23 15:11 39.01602 -30.51482 15799 ft 292 kts 287°
2026-04-23 15:11 39.02090 -30.54011 15791 ft 292 kts 287°
2026-04-23 15:11 39.02583 -30.56571 15613 ft 291 kts 287°
2026-04-23 15:11 39.03063 -30.59088 15367 ft 292 kts 287°
2026-04-23 15:12 39.03544 -30.61616 15059 ft 294 kts 286°
2026-04-23 15:12 39.03984 -30.64173 14746 ft 296 kts 285°
2026-04-23 15:12 39.04401 -30.66795 14429 ft 297 kts 284°
2026-04-23 15:12 39.04808 -30.69382 14117 ft 298 kts 284°
2026-04-23 15:13 39.05263 -30.71969 13749 ft 295 kts 286°
2026-04-23 15:13 39.05767 -30.74507 13249 ft 295 kts 287°
2026-04-23 15:13 39.06268 -30.77027 12988 ft 287 kts 286°
2026-04-23 15:13 39.06751 -30.79474 12681 ft 282 kts 286°
2026-04-23 15:14 39.07235 -30.81930 12151 ft 283 kts 286°
2026-04-23 15:14 39.07715 -30.84368 11451 ft 286 kts 286°
2026-04-23 15:14 39.08201 -30.86851 10690 ft 286 kts 286°
2026-04-23 15:14 39.08678 -30.89304 9881 ft 283 kts 285°
2026-04-23 15:15 39.09152 -30.91747 9044 ft 282 kts 285°
2026-04-23 15:15 39.09617 -30.94151 8365 ft 275 kts 285°
2026-04-23 15:15 39.10063 -30.96467 7979 ft 259 kts 284°
2026-04-23 15:15 39.10481 -30.98645 7616 ft 246 kts 284°
2026-04-23 15:16 39.10883 -31.00741 7248 ft 235 kts 284°
2026-04-23 15:16 39.11273 -31.02763 6888 ft 231 kts 284°
2026-04-23 15:16 39.11697 -31.04721 6532 ft 229 kts 291°
2026-04-23 15:16 39.12735 -31.06262 6150 ft 233 kts 328°
2026-04-23 15:17 39.14329 -31.06583 5794 ft 241 kts
2026-04-23 15:17 39.15800 -31.05516 5437 ft 250 kts 45°
2026-04-23 15:17 39.16561 -31.03544 5102 ft 252 kts 72°
2026-04-23 15:17 39.16933 -31.01327 4760 ft 252 kts 78°
2026-04-23 15:18 39.17182 -30.99101 4410 ft 253 kts 85°
2026-04-23 15:18 39.17092 -30.96832 4061 ft 253 kts 96°
2026-04-23 15:18 39.17124 -30.94610 3766 ft 245 kts 69°
2026-04-23 15:18 39.18084 -30.92927 3801 ft 232 kts 28°
2026-04-23 15:19 39.19591 -30.92449 3810 ft 218 kts 347°
2026-04-23 15:19 39.20900 -30.93267 3721 ft 215 kts 317°
2026-04-23 15:19 39.21838 -30.94776 3586 ft 215 kts 296°
2026-04-23 15:19 39.22380 -30.96561 3439 ft 218 kts 287°
2026-04-23 15:20 39.22769 -30.98458 3290 ft 212 kts 282°
2026-04-23 15:20 39.23037 -31.00320 3105 ft 210 kts 279°
2026-04-23 15:20 39.23225 -31.02154 2984 ft 205 kts 277°
2026-04-23 15:20 39.23354 -31.03976 2867 ft 201 kts 275°
2026-04-23 15:21 39.23564 -31.05752 2741 ft 197 kts 291°
2026-04-23 15:21 39.24514 -31.06939 2698 ft 196 kts 332°
2026-04-23 15:21 39.25821 -31.07391 2683 ft 192 kts 342°
2026-04-23 15:21 39.27117 -31.07738 2674 ft 186 kts 343°
2026-04-23 15:22 39.28381 -31.08064 2677 ft 185 kts 343°
2026-04-23 15:22 39.29651 -31.08385 2672 ft 185 kts 343°
2026-04-23 15:22 39.30905 -31.08701 2673 ft 184 kts 343°
2026-04-23 15:22 39.32176 -31.09022 2672 ft 183 kts 343°
2026-04-23 15:23 39.33405 -31.09393 2672 ft 182 kts 341°
2026-04-23 15:23 39.34649 -31.09775 2610 ft 186 kts 342°
2026-04-23 15:23 39.35896 -31.10162 2412 ft 182 kts 338°
2026-04-23 15:23 39.37104 -31.10629 2280 ft 174 kts 335°
2026-04-23 15:24 39.37908 -31.10941 2248 ft 169 kts 339°
2026-04-23 15:24 39.39070 -31.11309 1945 ft 173 kts 341°
2026-04-23 15:24 39.40161 -31.11613 1840 ft 151 kts 343°
2026-04-23 15:24 39.41177 -31.11836 1507 ft 147 kts 344°
2026-04-23 15:25 39.42182 -31.12139 921 ft 155 kts 340°
2026-04-23 15:25 39.43216 -31.12539 522 ft 148 kts 347°
2026-04-23 15:25 39.44191 -31.12770 324 ft 137 kts 348°
2026-04-23 15:25 39.45118 -31.13021 133 ft 127 kts 347°
2026-04-23 15:26 39.45711 -31.13189 120 ft 45 kts 347°
2026-04-23 15:26 39.45835 -31.13230 118 ft 3 kts 14°
2026-04-23 15:26 39.45814 -31.13156 117 ft 12 kts 81°
2026-04-23 15:26 39.45845 -31.13076 115 ft 7 kts 17°
2026-04-23 15:27 39.45870 -31.13087 115 ft 3 kts 276°
2026-04-23 15:27 39.45853 -31.13099 115 ft 0 kts 199°